sensor_id;sensor_type;location;lat;lon;timestamp;pressure;altitude;pressure_sealevel;temperature;humidity
76095;BME280;64821;13.710;100.604;2023-06-14T00:00:17;100918.31;;;35.05;49.19
76095;BME280;64821;13.710;100.604;2023-06-14T00:01:21;100911.66;;;35.06;49.07
76095;BME280;64821;13.710;100.604;2023-06-14T00:02:24;100912.44;;;35.07;49.20
76095;BME280;64821;13.710;100.604;2023-06-14T00:03:28;100915.34;;;35.10;49.10
76095;BME280;64821;13.710;100.604;2023-06-14T00:04:32;100913.88;;;35.13;49.54
76095;BME280;64821;13.710;100.604;2023-06-14T00:05:36;100905.28;;;35.14;49.57
76095;BME280;64821;13.710;100.604;2023-06-14T00:06:40;100916.75;;;35.16;49.74
76095;BME280;64821;13.710;100.604;2023-06-14T00:07:45;100909.28;;;35.17;49.08
76095;BME280;64821;13.710;100.604;2023-06-14T00:08:49;100916.56;;;35.21;49.19
76095;BME280;64821;13.710;100.604;2023-06-14T00:09:52;100917.03;;;35.23;48.71
76095;BME280;64821;13.710;100.604;2023-06-14T00:10:56;100917.53;;;35.26;48.84
76095;BME280;64821;13.710;100.604;2023-06-14T00:11:59;100915.94;;;35.24;49.09
76095;BME280;64821;13.710;100.604;2023-06-14T00:13:04;100898.16;;;35.13;49.21
76095;BME280;64821;13.710;100.604;2023-06-14T00:14:08;100910.41;;;35.24;49.04
76095;BME280;64821;13.710;100.604;2023-06-14T00:15:11;100920.28;;;35.26;48.76
76095;BME280;64821;13.710;100.604;2023-06-14T00:16:15;100921.06;;;35.26;48.75
76095;BME280;64821;13.710;100.604;2023-06-14T00:17:19;100891.84;;;35.13;48.93
76095;BME280;64821;13.710;100.604;2023-06-14T00:18:23;100924.63;;;35.27;48.31
76095;BME280;64821;13.710;100.604;2023-06-14T00:19:27;100924.31;;;35.28;49.16
76095;BME280;64821;13.710;100.604;2023-06-14T00:20:31;100923.38;;;35.24;48.67
76095;BME280;64821;13.710;100.604;2023-06-14T00:21:35;100924.44;;;35.32;48.86
76095;BME280;64821;13.710;100.604;2023-06-14T00:22:39;100929.28;;;35.35;48.66
76095;BME280;64821;13.710;100.604;2023-06-14T00:23:44;100935.25;;;35.37;48.43
76095;BME280;64821;13.710;100.604;2023-06-14T00:24:48;100928.59;;;35.38;48.54
76095;BME280;64821;13.710;100.604;2023-06-14T00:25:51;100933.44;;;35.41;48.29
76095;BME280;64821;13.710;100.604;2023-06-14T00:26:55;100937.81;;;35.42;48.13
76095;BME280;64821;13.710;100.604;2023-06-14T00:27:59;100934.72;;;35.43;48.36
76095;BME280;64821;13.710;100.604;2023-06-14T00:29:02;100925.38;;;35.36;48.57
76095;BME280;64821;13.710;100.604;2023-06-14T00:30:07;100939.91;;;35.45;48.48
76095;BME280;64821;13.710;100.604;2023-06-14T00:31:11;100943.78;;;35.44;48.31
76095;BME280;64821;13.710;100.604;2023-06-14T00:32:15;100938.38;;;35.47;48.60
76095;BME280;64821;13.710;100.604;2023-06-14T00:33:18;100949.56;;;35.51;48.18
76095;BME280;64821;13.710;100.604;2023-06-14T00:34:22;100939.81;;;35.53;48.14
76095;BME280;64821;13.710;100.604;2023-06-14T00:35:26;100939.47;;;35.55;48.43
76095;BME280;64821;13.710;100.604;2023-06-14T00:36:29;100939.13;;;35.56;48.22
76095;BME280;64821;13.710;100.604;2023-06-14T00:37:33;100947.84;;;35.58;47.76
76095;BME280;64821;13.710;100.604;2023-06-14T00:38:37;100936.50;;;35.60;48.08
76095;BME280;64821;13.710;100.604;2023-06-14T00:39:42;100935.69;;;35.59;47.54
76095;BME280;64821;13.710;100.604;2023-06-14T00:40:46;100933.41;;;35.61;47.72
76095;BME280;64821;13.710;100.604;2023-06-14T00:41:49;100937.88;;;35.66;47.70
76095;BME280;64821;13.710;100.604;2023-06-14T00:42:53;100935.28;;;35.70;47.90
76095;BME280;64821;13.710;100.604;2023-06-14T00:43:57;100931.38;;;35.71;47.52
76095;BME280;64821;13.710;100.604;2023-06-14T00:45:01;100936.69;;;35.76;47.18
76095;BME280;64821;13.710;100.604;2023-06-14T00:46:04;100934.88;;;35.80;47.20
76095;BME280;64821;13.710;100.604;2023-06-14T00:47:08;100933.41;;;35.82;47.15
76095;BME280;64821;13.710;100.604;2023-06-14T00:48:13;100935.00;;;35.83;47.73
76095;BME280;64821;13.710;100.604;2023-06-14T00:49:18;100932.69;;;35.85;47.41
76095;BME280;64821;13.710;100.604;2023-06-14T00:50:22;100934.66;;;35.85;47.34
76095;BME280;64821;13.710;100.604;2023-06-14T00:51:26;100931.34;;;35.91;46.96
76095;BME280;64821;13.710;100.604;2023-06-14T00:52:30;100939.38;;;35.96;46.66
76095;BME280;64821;13.710;100.604;2023-06-14T00:53:34;100928.03;;;35.98;47.22
76095;BME280;64821;13.710;100.604;2023-06-14T00:54:38;100936.75;;;36.00;46.90
76095;BME280;64821;13.710;100.604;2023-06-14T00:55:43;100930.91;;;36.02;47.16
76095;BME280;64821;13.710;100.604;2023-06-14T00:56:47;100930.56;;;36.03;47.00
76095;BME280;64821;13.710;100.604;2023-06-14T00:57:51;100933.66;;;36.02;46.38
76095;BME280;64821;13.710;100.604;2023-06-14T00:58:55;100931.91;;;35.97;46.70
76095;BME280;64821;13.710;100.604;2023-06-14T00:59:59;100937.09;;;35.98;46.72
76095;BME280;64821;13.710;100.604;2023-06-14T01:01:03;100932.41;;;35.99;46.30
76095;BME280;64821;13.710;100.604;2023-06-14T01:02:06;100936.16;;;35.94;46.96
76095;BME280;64821;13.710;100.604;2023-06-14T01:03:10;100941.00;;;35.97;47.26
76095;BME280;64821;13.710;100.604;2023-06-14T01:04:14;100933.41;;;35.94;47.26
76095;BME280;64821;13.710;100.604;2023-06-14T01:05:19;100934.22;;;35.95;47.06
76095;BME280;64821;13.710;100.604;2023-06-14T01:06:30;100934.00;;;36.00;47.23
76095;BME280;64821;13.710;100.604;2023-06-14T01:07:43;100935.16;;;35.99;47.20
76095;BME280;64821;13.710;100.604;2023-06-14T01:08:55;100938.72;;;36.00;46.33
76095;BME280;64821;13.710;100.604;2023-06-14T01:10:12;100942.75;;;36.02;47.37
76095;BME280;64821;13.710;100.604;2023-06-14T01:11:24;100941.94;;;36.02;46.75
76095;BME280;64821;13.710;100.604;2023-06-14T01:12:36;100940.00;;;36.02;46.93
76095;BME280;64821;13.710;100.604;2023-06-14T01:13:45;100941.59;;;36.03;47.08
76095;BME280;64821;13.710;100.604;2023-06-14T01:14:50;100945.16;;;36.04;47.09
76095;BME280;64821;13.710;100.604;2023-06-14T01:15:55;100947.94;;;36.04;46.69
76095;BME280;64821;13.710;100.604;2023-06-14T01:17:00;100946.75;;;36.05;46.84
76095;BME280;64821;13.710;100.604;2023-06-14T01:18:05;100937.78;;;35.95;46.52
76095;BME280;64821;13.710;100.604;2023-06-14T01:19:11;100944.38;;;36.03;46.87
76095;BME280;64821;13.710;100.604;2023-06-14T01:20:15;100948.25;;;36.02;46.94
76095;BME280;64821;13.710;100.604;2023-06-14T01:21:23;100948.84;;;36.08;46.70
76095;BME280;64821;13.710;100.604;2023-06-14T01:22:27;100949.78;;;36.12;46.23
76095;BME280;64821;13.710;100.604;2023-06-14T01:23:33;100939.22;;;36.14;46.25
76095;BME280;64821;13.710;100.604;2023-06-14T01:24:37;100947.00;;;36.12;46.30
76095;BME280;64821;13.710;100.604;2023-06-14T01:25:40;100948.06;;;36.19;46.35
76095;BME280;64821;13.710;100.604;2023-06-14T01:26:45;100957.63;;;36.22;46.18
76095;BME280;64821;13.710;100.604;2023-06-14T01:27:51;100958.78;;;36.21;46.47
76095;BME280;64821;13.710;100.604;2023-06-14T01:28:55;100959.59;;;36.21;46.54
76095;BME280;64821;13.710;100.604;2023-06-14T01:29:59;100954.88;;;36.22;46.16
76095;BME280;64821;13.710;100.604;2023-06-14T01:31:03;100954.06;;;36.21;45.82
76095;BME280;64821;13.710;100.604;2023-06-14T01:32:08;100928.72;;;36.07;46.52
76095;BME280;64821;13.710;100.604;2023-06-14T01:33:13;100950.59;;;36.24;45.38
76095;BME280;64821;13.710;100.604;2023-06-14T01:34:17;100947.50;;;36.26;45.74
76095;BME280;64821;13.710;100.604;2023-06-14T01:35:21;100949.59;;;36.29;45.86
76095;BME280;64821;13.710;100.604;2023-06-14T01:36:27;100933.63;;;36.22;45.66
76095;BME280;64821;13.710;100.604;2023-06-14T01:37:32;100951.19;;;36.30;45.81
76095;BME280;64821;13.710;100.604;2023-06-14T01:38:37;100954.53;;;36.36;45.90
76095;BME280;64821;13.710;100.604;2023-06-14T01:39:43;100961.19;;;36.34;46.16
76095;BME280;64821;13.710;100.604;2023-06-14T01:40:47;100939.22;;;36.26;45.94
76095;BME280;64821;13.710;100.604;2023-06-14T01:41:52;100955.34;;;36.36;45.74
76095;BME280;64821;13.710;100.604;2023-06-14T01:42:56;100958.91;;;36.37;45.86
76095;BME280;64821;13.710;100.604;2023-06-14T01:44:02;100935.91;;;36.20;45.32
76095;BME280;64821;13.710;100.604;2023-06-14T01:45:07;100952.34;;;36.29;45.29
76095;BME280;64821;13.710;100.604;2023-06-14T01:46:13;100948.44;;;36.30;45.57
76095;BME280;64821;13.710;100.604;2023-06-14T01:47:18;100949.59;;;36.29;45.29
76095;BME280;64821;13.710;100.604;2023-06-14T01:48:23;100950.06;;;36.31;45.74
76095;BME280;64821;13.710;100.604;2023-06-14T01:49:26;100954.16;;;36.25;44.65
76095;BME280;64821;13.710;100.604;2023-06-14T01:50:31;100955.91;;;36.29;45.09
76095;BME280;64821;13.710;100.604;2023-06-14T01:51:34;100954.63;;;36.27;44.91
76095;BME280;64821;13.710;100.604;2023-06-14T01:52:38;100957.53;;;36.30;45.37
76095;BME280;64821;13.710;100.604;2023-06-14T01:53:43;100962.38;;;36.33;45.15
76095;BME280;64821;13.710;100.604;2023-06-14T01:54:47;100964.41;;;36.37;45.00
76095;BME280;64821;13.710;100.604;2023-06-14T01:55:51;100964.56;;;36.40;45.11
76095;BME280;64821;13.710;100.604;2023-06-14T01:56:54;100958.22;;;36.40;45.04
76095;BME280;64821;13.710;100.604;2023-06-14T01:57:58;100962.47;;;36.37;44.78
76095;BME280;64821;13.710;100.604;2023-06-14T01:59:02;100962.47;;;36.37;44.61
76095;BME280;64821;13.710;100.604;2023-06-14T02:00:06;100961.44;;;36.42;44.86
76095;BME280;64821;13.710;100.604;2023-06-14T02:01:10;100959.84;;;36.41;44.64
76095;BME280;64821;13.710;100.604;2023-06-14T02:02:14;100959.03;;;36.40;44.46
76095;BME280;64821;13.710;100.604;2023-06-14T02:03:18;100967.41;;;36.44;44.71
76095;BME280;64821;13.710;100.604;2023-06-14T02:04:22;100964.56;;;36.40;44.06
76095;BME280;64821;13.710;100.604;2023-06-14T02:05:26;100972.16;;;36.43;44.47
76095;BME280;64821;13.710;100.604;2023-06-14T02:06:30;100971.44;;;36.46;44.45
76095;BME280;64821;13.710;100.604;2023-06-14T02:07:33;100969.97;;;36.49;44.44
76095;BME280;64821;13.710;100.604;2023-06-14T02:08:37;100968.34;;;36.48;44.27
76095;BME280;64821;13.710;100.604;2023-06-14T02:09:43;100967.19;;;36.49;44.71
76095;BME280;64821;13.710;100.604;2023-06-14T02:10:46;100969.50;;;36.47;44.65
76095;BME280;64821;13.710;100.604;2023-06-14T02:11:50;100979.63;;;36.43;44.46
76095;BME280;64821;13.710;100.604;2023-06-14T02:12:54;100969.25;;;36.40;44.40
76095;BME280;64821;13.710;100.604;2023-06-14T02:13:57;100970.50;;;36.30;44.05
76095;BME280;64821;13.710;100.604;2023-06-14T02:15:01;100953.56;;;36.19;44.22
76095;BME280;64821;13.710;100.604;2023-06-14T02:16:05;100972.22;;;36.34;44.67
76095;BME280;64821;13.710;100.604;2023-06-14T02:17:08;100970.28;;;36.35;44.41
76095;BME280;64821;13.710;100.604;2023-06-14T02:18:12;100955.44;;;36.27;44.27
76095;BME280;64821;13.710;100.604;2023-06-14T02:19:16;100965.81;;;36.30;44.65
76095;BME280;64821;13.710;100.604;2023-06-14T02:20:20;100974.44;;;36.41;44.34
76095;BME280;64821;13.710;100.604;2023-06-14T02:21:24;100975.25;;;36.42;44.93
76095;BME280;64821;13.710;100.604;2023-06-14T02:22:27;100967.41;;;36.44;44.61
76095;BME280;64821;13.710;100.604;2023-06-14T02:23:31;100969.97;;;36.49;44.61
76095;BME280;64821;13.710;100.604;2023-06-14T02:24:37;100972.38;;;36.50;44.37
76095;BME280;64821;13.710;100.604;2023-06-14T02:25:42;100974.78;;;36.52;43.82
76095;BME280;64821;13.710;100.604;2023-06-14T02:26:46;100970.97;;;36.56;44.27
76095;BME280;64821;13.710;100.604;2023-06-14T02:27:49;100976.63;;;36.60;44.32
76095;BME280;64821;13.710;100.604;2023-06-14T02:28:53;100964.78;;;36.59;44.39
76095;BME280;64821;13.710;100.604;2023-06-14T02:29:57;100970.09;;;36.52;44.21
76095;BME280;64821;13.710;100.604;2023-06-14T02:31:01;100976.41;;;36.53;44.71
76095;BME280;64821;13.710;100.604;2023-06-14T02:32:05;100976.84;;;36.55;44.56
76095;BME280;64821;13.710;100.604;2023-06-14T02:33:09;100971.31;;;36.55;44.80
76095;BME280;64821;13.710;100.604;2023-06-14T02:34:12;100956.47;;;36.35;42.69
76095;BME280;64821;13.710;100.604;2023-06-14T02:35:16;100973.22;;;36.18;45.39
76095;BME280;64821;13.710;100.604;2023-06-14T02:36:20;100972.69;;;36.24;45.70
76095;BME280;64821;13.710;100.604;2023-06-14T02:37:24;100968.16;;;36.20;45.71
76095;BME280;64821;13.710;100.604;2023-06-14T02:38:27;100969.19;;;36.15;46.27
76095;BME280;64821;13.710;100.604;2023-06-14T02:39:31;100966.78;;;36.14;46.36
76095;BME280;64821;13.710;100.604;2023-06-14T02:40:35;100956.31;;;36.07;46.99
76095;BME280;64821;13.710;100.604;2023-06-14T02:41:40;100964.38;;;36.12;46.19
76095;BME280;64821;13.710;100.604;2023-06-14T02:42:44;100965.50;;;36.11;46.29
76095;BME280;64821;13.710;100.604;2023-06-14T02:43:47;100961.94;;;36.11;46.79
76095;BME280;64821;13.710;100.604;2023-06-14T02:44:51;100967.56;;;36.02;46.67
76095;BME280;64821;13.710;100.604;2023-06-14T02:45:55;100965.28;;;36.04;46.63
76095;BME280;64821;13.710;100.604;2023-06-14T02:46:58;100948.38;;;35.93;47.08
76095;BME280;64821;13.710;100.604;2023-06-14T02:48:02;100954.34;;;36.08;46.31
76095;BME280;64821;13.710;100.604;2023-06-14T02:49:06;100957.34;;;36.15;46.26
76095;BME280;64821;13.710;100.604;2023-06-14T02:50:10;100958.97;;;36.16;46.78
76095;BME280;64821;13.710;100.604;2023-06-14T02:51:14;100957.41;;;36.27;46.12
76095;BME280;64821;13.710;100.604;2023-06-14T02:52:17;100961.31;;;36.38;45.91
76095;BME280;64821;13.710;100.604;2023-06-14T02:53:21;100963.50;;;36.45;46.25
76095;BME280;64821;13.710;100.604;2023-06-14T02:54:25;100965.25;;;36.49;46.30
76095;BME280;64821;13.710;100.604;2023-06-14T02:55:29;100953.75;;;36.59;45.79
76095;BME280;64821;13.710;100.604;2023-06-14T02:56:32;100955.72;;;36.71;45.68
76095;BME280;64821;13.710;100.604;2023-06-14T02:57:38;100946.16;;;36.56;45.52
76095;BME280;64821;13.710;100.604;2023-06-14T02:58:41;100949.06;;;36.72;45.45
76095;BME280;64821;13.710;100.604;2023-06-14T02:59:45;100942.81;;;36.75;45.61
76095;BME280;64821;13.710;100.604;2023-06-14T03:00:49;100942.00;;;36.87;44.52
76095;BME280;64821;13.710;100.604;2023-06-14T03:01:52;100936.75;;;36.82;44.61
76095;BME280;64821;13.710;100.604;2023-06-14T03:02:56;100938.66;;;36.93;44.50
76095;BME280;64821;13.710;100.604;2023-06-14T03:04:00;100935.31;;;37.00;43.44
76095;BME280;64821;13.710;100.604;2023-06-14T03:05:05;100925.09;;;37.00;43.89
76095;BME280;64821;13.710;100.604;2023-06-14T03:06:09;100940.03;;;37.12;44.23
76095;BME280;64821;13.710;100.604;2023-06-14T03:07:13;100941.31;;;37.02;44.30
76095;BME280;64821;13.710;100.604;2023-06-14T03:08:16;100936.69;;;37.06;44.13
76095;BME280;64821;13.710;100.604;2023-06-14T03:09:21;100935.66;;;36.98;44.25
76095;BME280;64821;13.710;100.604;2023-06-14T03:10:25;100936.16;;;36.88;44.21
76095;BME280;64821;13.710;100.604;2023-06-14T03:11:29;100947.84;;;37.10;43.86
76095;BME280;64821;13.710;100.604;2023-06-14T03:12:33;100939.22;;;36.99;44.54
76095;BME280;64821;13.710;100.604;2023-06-14T03:13:38;100942.41;;;37.13;43.96
76095;BME280;64821;13.710;100.604;2023-06-14T03:14:41;100935.41;;;37.16;43.55
76095;BME280;64821;13.710;100.604;2023-06-14T03:15:45;100941.50;;;37.09;43.86
76095;BME280;64821;13.710;100.604;2023-06-14T03:16:49;100939.47;;;36.94;42.90
76095;BME280;64821;13.710;100.604;2023-06-14T03:17:52;100934.94;;;37.26;43.07
76095;BME280;64821;13.710;100.604;2023-06-14T20:01:29;100748.03;;;34.95;50.75
76095;BME280;64821;13.710;100.604;2023-06-14T20:02:33;100752.75;;;34.95;50.33
76095;BME280;64821;13.710;100.604;2023-06-14T20:03:36;100738.16;;;34.94;49.89
76095;BME280;64821;13.710;100.604;2023-06-14T20:04:40;100749.19;;;34.94;50.68
76095;BME280;64821;13.710;100.604;2023-06-14T20:05:44;100745.97;;;34.92;50.29
76095;BME280;64821;13.710;100.604;2023-06-14T20:06:48;100745.16;;;34.92;50.07
76095;BME280;64821;13.710;100.604;2023-06-14T20:07:52;100753.88;;;34.94;50.04
76095;BME280;64821;13.710;100.604;2023-06-14T20:08:55;100745.25;;;34.83;50.64
76095;BME280;64821;13.710;100.604;2023-06-14T20:09:59;100750.88;;;34.86;50.59
76095;BME280;64821;13.710;100.604;2023-06-14T20:11:03;100742.97;;;34.85;50.84
76095;BME280;64821;13.710;100.604;2023-06-14T20:12:07;100744.22;;;34.87;49.80
76095;BME280;64821;13.710;100.604;2023-06-14T20:13:11;100741.44;;;34.87;50.26
76095;BME280;64821;13.710;100.604;2023-06-14T20:14:15;100743.22;;;34.92;50.71
76095;BME280;64821;13.710;100.604;2023-06-14T20:15:19;100748.56;;;34.88;50.36
76095;BME280;64821;13.710;100.604;2023-06-14T20:16:22;100742.72;;;34.90;49.97
76095;BME280;64821;13.710;100.604;2023-06-14T20:17:28;100751.47;;;34.92;49.99
76095;BME280;64821;13.710;100.604;2023-06-14T20:18:32;100750.00;;;34.95;50.08
76095;BME280;64821;13.710;100.604;2023-06-14T20:19:36;100743.69;;;34.94;50.68
76095;BME280;64821;13.710;100.604;2023-06-14T20:20:40;100750.44;;;34.97;50.03
76095;BME280;64821;13.710;100.604;2023-06-14T20:21:43;100751.59;;;34.96;50.73
76095;BME280;64821;13.710;100.604;2023-06-14T20:22:47;100726.97;;;34.78;49.99
76095;BME280;64821;13.710;100.604;2023-06-14T20:23:51;100753.06;;;34.93;50.54
76095;BME280;64821;13.710;100.604;2023-06-14T20:24:55;100746.44;;;34.94;49.84
76095;BME280;64821;13.710;100.604;2023-06-14T20:25:58;100744.47;;;34.95;50.08
76095;BME280;64821;13.710;100.604;2023-06-14T20:27:03;100738.03;;;34.91;49.78
76095;BME280;64821;13.710;100.604;2023-06-14T20:28:06;100741.59;;;34.91;50.03
76095;BME280;64821;13.710;100.604;2023-06-14T20:29:10;100746.75;;;34.93;50.65
76095;BME280;64821;13.710;100.604;2023-06-14T20:30:14;100742.41;;;34.92;49.80
76095;BME280;64821;13.710;100.604;2023-06-14T20:31:20;100743.69;;;34.94;50.32
76095;BME280;64821;13.710;100.604;2023-06-14T20:32:25;100739.78;;;34.95;49.49
76095;BME280;64821;13.710;100.604;2023-06-14T20:33:30;100731.38;;;34.92;49.62
76095;BME280;64821;13.710;100.604;2023-06-14T20:34:34;100731.16;;;34.97;50.18
76095;BME280;64821;13.710;100.604;2023-06-14T20:35:38;100733.47;;;34.95;50.09
76095;BME280;64821;13.710;100.604;2023-06-14T20:36:41;100735.19;;;34.99;49.96
76095;BME280;64821;13.710;100.604;2023-06-14T20:37:45;100728.06;;;34.98;49.78
76095;BME280;64821;13.710;100.604;2023-06-14T20:38:49;100738.09;;;35.03;50.52
76095;BME280;64821;13.710;100.604;2023-06-14T20:39:54;100731.78;;;35.02;50.60
76095;BME280;64821;13.710;100.604;2023-06-14T20:40:58;100730.97;;;35.02;50.49
76095;BME280;64821;13.710;100.604;2023-06-14T20:42:02;100728.53;;;35.00;50.92
76095;BME280;64821;13.710;100.604;2023-06-14T20:43:18;100734.84;;;35.01;50.31
76095;BME280;64821;13.710;100.604;2023-06-14T20:44:22;100732.91;;;35.01;50.81
76095;BME280;64821;13.710;100.604;2023-06-14T20:45:26;100733.72;;;35.02;50.42
76095;BME280;64821;13.710;100.604;2023-06-14T20:46:29;100731.78;;;35.02;50.55
76095;BME280;64821;13.710;100.604;2023-06-14T20:47:33;100731.78;;;35.02;51.22
76095;BME280;64821;13.710;100.604;2023-06-14T20:48:39;100729.00;;;35.02;51.48
76095;BME280;64821;13.710;100.604;2023-06-14T20:49:43;100737.28;;;35.02;51.16
76095;BME280;64821;13.710;100.604;2023-06-14T20:50:46;100728.22;;;35.02;51.39
76095;BME280;64821;13.710;100.604;2023-06-14T20:51:50;100736.47;;;35.02;51.46
76095;BME280;64821;13.710;100.604;2023-06-14T20:52:54;100717.97;;;34.90;51.31
76095;BME280;64821;13.710;100.604;2023-06-14T20:53:58;100722.91;;;34.97;50.60
76095;BME280;64821;13.710;100.604;2023-06-14T20:55:02;100727.03;;;34.91;51.53
76095;BME280;64821;13.710;100.604;2023-06-14T20:56:05;100736.66;;;34.97;51.54
76095;BME280;64821;13.710;100.604;2023-06-14T20:57:10;100731.38;;;34.92;51.75
76095;BME280;64821;13.710;100.604;2023-06-14T20:58:13;100737.03;;;34.95;51.24
76095;BME280;64821;13.710;100.604;2023-06-14T20:59:17;100745.28;;;34.95;51.17
76095;BME280;64821;13.710;100.604;2023-06-14T21:00:21;100733.13;;;34.96;51.50
76095;BME280;64821;13.710;100.604;2023-06-14T21:01:25;100731.53;;;34.95;51.81
76095;BME280;64821;13.710;100.604;2023-06-14T21:02:28;100729.56;;;34.96;51.33
76095;BME280;64821;13.710;100.604;2023-06-14T21:03:32;100736.22;;;34.95;51.46
76095;BME280;64821;13.710;100.604;2023-06-14T21:04:38;100729.63;;;34.87;50.91
76095;BME280;64821;13.710;100.604;2023-06-14T21:05:42;100735.28;;;34.91;51.34
76095;BME280;64821;13.710;100.604;2023-06-14T21:06:46;100737.38;;;34.94;50.82
76095;BME280;64821;13.710;100.604;2023-06-14T21:07:50;100731.06;;;34.93;51.45
76095;BME280;64821;13.710;100.604;2023-06-14T21:08:53;100727.97;;;34.95;51.70
76095;BME280;64821;13.710;100.604;2023-06-14T21:09:57;100727.16;;;34.94;51.55
76095;BME280;64821;13.710;100.604;2023-06-14T21:11:01;100731.53;;;34.95;51.75
76095;BME280;64821;13.710;100.604;2023-06-14T21:12:05;100730.72;;;34.95;51.34
76095;BME280;64821;13.710;100.604;2023-06-14T21:13:11;100735.09;;;34.96;51.45
76095;BME280;64821;13.710;100.604;2023-06-14T21:14:14;100733.81;;;34.93;51.91
76095;BME280;64821;13.710;100.604;2023-06-14T21:15:18;100733.47;;;34.95;51.07
76095;BME280;64821;13.710;100.604;2023-06-14T21:16:22;100736.22;;;34.95;51.64
76095;BME280;64821;13.710;100.604;2023-06-14T21:17:26;100734.63;;;34.94;51.87
76095;BME280;64821;13.710;100.604;2023-06-14T21:18:30;100728.97;;;34.90;51.57
76095;BME280;64821;13.710;100.604;2023-06-14T21:19:34;100737.22;;;34.90;51.79
76095;BME280;64821;13.710;100.604;2023-06-14T21:20:39;100739.66;;;34.92;51.42
76095;BME280;64821;13.710;100.604;2023-06-14T21:21:43;100731.38;;;34.92;52.21
76095;BME280;64821;13.710;100.604;2023-06-14T21:22:47;100729.44;;;34.92;51.54
76095;BME280;64821;13.710;100.604;2023-06-14T21:23:50;100732.84;;;34.89;51.81
76095;BME280;64821;13.710;100.604;2023-06-14T21:24:54;100736.91;;;34.92;51.75
76095;BME280;64821;13.710;100.604;2023-06-14T21:25:58;100744.81;;;34.93;51.56
76095;BME280;64821;13.710;100.604;2023-06-14T21:27:02;100739.31;;;34.93;51.81
76095;BME280;64821;13.710;100.604;2023-06-14T21:28:06;100739.66;;;34.92;51.92
76095;BME280;64821;13.710;100.604;2023-06-14T21:29:10;100741.59;;;34.91;51.83
76095;BME280;64821;13.710;100.604;2023-06-14T21:30:15;100745.97;;;34.92;51.68
76095;BME280;64821;13.710;100.604;2023-06-14T21:31:20;100742.06;;;34.93;51.94
76095;BME280;64821;13.710;100.604;2023-06-14T21:32:23;100749.19;;;34.94;52.07
76095;BME280;64821;13.710;100.604;2023-06-14T21:33:27;100745.63;;;34.94;51.56
76095;BME280;64821;13.710;100.604;2023-06-14T21:34:31;100746.44;;;34.94;51.75
76095;BME280;64821;13.710;100.604;2023-06-14T21:35:35;100740.94;;;34.94;52.03
76095;BME280;64821;13.710;100.604;2023-06-14T21:36:40;100745.97;;;34.92;51.39
76095;BME280;64821;13.710;100.604;2023-06-14T21:37:44;100745.63;;;34.94;51.98
76095;BME280;64821;13.710;100.604;2023-06-14T21:38:47;100742.88;;;34.94;51.56
76095;BME280;64821;13.710;100.604;2023-06-14T21:39:51;100750.31;;;34.93;51.81
76095;BME280;64821;13.710;100.604;2023-06-14T21:40:55;100745.16;;;34.92;51.81
76095;BME280;64821;13.710;100.604;2023-06-14T21:41:58;100747.44;;;34.89;52.22
76095;BME280;64821;13.710;100.604;2023-06-14T21:43:02;100749.03;;;34.91;51.84
76095;BME280;64821;13.710;100.604;2023-06-14T21:44:06;100747.09;;;34.91;52.16
76095;BME280;64821;13.710;100.604;2023-06-14T21:45:12;100751.00;;;34.90;52.16
76095;BME280;64821;13.710;100.604;2023-06-14T21:46:17;100747.09;;;34.91;51.36
76095;BME280;64821;13.710;100.604;2023-06-14T21:47:21;100747.91;;;34.92;51.73
76095;BME280;64821;13.710;100.604;2023-06-14T21:48:25;100752.59;;;34.91;51.92
76095;BME280;64821;13.710;100.604;2023-06-14T21:49:29;100751.78;;;34.91;51.95
76095;BME280;64821;13.710;100.604;2023-06-14T21:50:32;100753.75;;;34.90;52.23
76095;BME280;64821;13.710;100.604;2023-06-14T21:51:36;100751.00;;;34.90;51.33
76095;BME280;64821;13.710;100.604;2023-06-14T21:52:42;100747.44;;;34.89;51.49
76095;BME280;64821;13.710;100.604;2023-06-14T21:53:45;100751.47;;;34.92;51.18
76095;BME280;64821;13.710;100.604;2023-06-14T21:54:54;100746.63;;;34.89;51.73
76095;BME280;64821;13.710;100.604;2023-06-14T21:55:58;100745.16;;;34.92;51.46
76095;BME280;64821;13.710;100.604;2023-06-14T21:57:01;100746.97;;;34.87;51.81
76095;BME280;64821;13.710;100.604;2023-06-14T21:58:05;100752.28;;;34.93;51.60
76095;BME280;64821;13.710;100.604;2023-06-14T21:59:09;100745.97;;;34.92;51.83
76095;BME280;64821;13.710;100.604;2023-06-14T22:00:14;100755.34;;;34.91;52.32
76095;BME280;64821;13.710;100.604;2023-06-14T22:01:18;100741.59;;;34.91;52.19
76095;BME280;64821;13.710;100.604;2023-06-14T22:02:22;100748.25;;;34.90;51.97
76095;BME280;64821;13.710;100.604;2023-06-14T22:03:26;100751.00;;;34.90;52.25
76095;BME280;64821;13.710;100.604;2023-06-14T22:04:30;100743.88;;;34.89;52.48
76095;BME280;64821;13.710;100.604;2023-06-14T22:05:34;100745.47;;;34.90;52.36
76095;BME280;64821;13.710;100.604;2023-06-14T22:06:37;100743.06;;;34.88;52.10
76095;BME280;64821;13.710;100.604;2023-06-14T22:07:43;100745.81;;;34.88;52.54
76095;BME280;64821;13.710;100.604;2023-06-14T22:08:46;100741.13;;;34.89;52.32
76095;BME280;64821;13.710;100.604;2023-06-14T22:09:50;100748.25;;;34.90;51.53